sensor_id;sensor_type;location;lat;lon;timestamp;temperature;humidity
26964;DHT22;14521;48.148;-1.656;2022-11-20T00:00:32;18.10;89.40
26964;DHT22;14521;48.148;-1.656;2022-11-20T00:03:56;18.10;89.50
26964;DHT22;14521;48.148;-1.656;2022-11-20T00:07:18;18.10;89.50
26964;DHT22;14521;48.148;-1.656;2022-11-20T00:10:41;18.10;89.50
26964;DHT22;14521;48.148;-1.656;2022-11-20T00:14:03;18.10;89.60
26964;DHT22;14521;48.148;-1.656;2022-11-20T00:17:25;18.10;89.50
26964;DHT22;14521;48.148;-1.656;2022-11-20T00:20:47;18.00;89.60
26964;DHT22;14521;48.148;-1.656;2022-11-20T00:24:10;18.00;89.60
26964;DHT22;14521;48.148;-1.656;2022-11-20T00:27:32;18.00;89.50
26964;DHT22;14521;48.148;-1.656;2022-11-20T00:31:08;18.00;89.60
26964;DHT22;14521;48.148;-1.656;2022-11-20T00:34:30;18.00;89.50
26964;DHT22;14521;48.148;-1.656;2022-11-20T00:37:53;18.00;89.50
26964;DHT22;14521;48.148;-1.656;2022-11-20T00:41:15;18.00;89.60
26964;DHT22;14521;48.148;-1.656;2022-11-20T00:44:38;18.00;89.60
26964;DHT22;14521;48.148;-1.656;2022-11-20T00:48:00;17.90;89.60
26964;DHT22;14521;48.148;-1.656;2022-11-20T00:51:25;17.90;89.60
26964;DHT22;14521;48.148;-1.656;2022-11-20T00:54:47;17.90;89.60
26964;DHT22;14521;48.148;-1.656;2022-11-20T00:58:10;17.90;89.60
26964;DHT22;14521;48.148;-1.656;2022-11-20T01:01:36;18.00;89.60
26964;DHT22;14521;48.148;-1.656;2022-11-20T01:04:59;17.90;89.60
26964;DHT22;14521;48.148;-1.656;2022-11-20T01:08:21;17.90;89.60
26964;DHT22;14521;48.148;-1.656;2022-11-20T01:11:44;17.90;89.60
26964;DHT22;14521;48.148;-1.656;2022-11-20T01:15:07;17.90;89.60
26964;DHT22;14521;48.148;-1.656;2022-11-20T01:18:30;17.90;89.60
26964;DHT22;14521;48.148;-1.656;2022-11-20T01:21:53;17.90;89.60
26964;DHT22;14521;48.148;-1.656;2022-11-20T01:25:16;17.80;89.60
26964;DHT22;14521;48.148;-1.656;2022-11-20T01:28:39;17.80;89.60
26964;DHT22;14521;48.148;-1.656;2022-11-20T01:32:01;17.80;89.60
26964;DHT22;14521;48.148;-1.656;2022-11-20T01:35:23;17.80;89.60
26964;DHT22;14521;48.148;-1.656;2022-11-20T01:38:46;17.80;89.70
26964;DHT22;14521;48.148;-1.656;2022-11-20T01:42:08;17.80;89.70
26964;DHT22;14521;48.148;-1.656;2022-11-20T01:46:15;17.80;89.70
26964;DHT22;14521;48.148;-1.656;2022-11-20T01:49:42;17.80;89.70
26964;DHT22;14521;48.148;-1.656;2022-11-20T01:53:13;17.80;89.80
26964;DHT22;14521;48.148;-1.656;2022-11-20T01:56:39;17.80;89.80
26964;DHT22;14521;48.148;-1.656;2022-11-20T02:00:10;17.80;89.80
26964;DHT22;14521;48.148;-1.656;2022-11-20T02:03:33;17.80;89.80
26964;DHT22;14521;48.148;-1.656;2022-11-20T02:07:00;17.80;89.80
26964;DHT22;14521;48.148;-1.656;2022-11-20T02:10:23;17.80;90.00
26964;DHT22;14521;48.148;-1.656;2022-11-20T02:13:46;17.80;90.00
26964;DHT22;14521;48.148;-1.656;2022-11-20T02:17:08;17.80;90.00
26964;DHT22;14521;48.148;-1.656;2022-11-20T02:20:31;17.80;90.00
26964;DHT22;14521;48.148;-1.656;2022-11-20T02:27:19;17.80;90.00
26964;DHT22;14521;48.148;-1.656;2022-11-20T02:30:42;17.70;90.00
26964;DHT22;14521;48.148;-1.656;2022-11-20T02:34:04;17.80;90.10
26964;DHT22;14521;48.148;-1.656;2022-11-20T02:37:31;17.70;90.00
26964;DHT22;14521;48.148;-1.656;2022-11-20T02:40:54;17.70;90.00
26964;DHT22;14521;48.148;-1.656;2022-11-20T02:44:17;17.70;90.10
26964;DHT22;14521;48.148;-1.656;2022-11-20T02:47:39;17.70;90.10
26964;DHT22;14521;48.148;-1.656;2022-11-20T02:51:01;17.70;90.10
26964;DHT22;14521;48.148;-1.656;2022-11-20T02:54:24;17.70;90.10
26964;DHT22;14521;48.148;-1.656;2022-11-20T02:57:46;17.70;90.10
26964;DHT22;14521;48.148;-1.656;2022-11-20T03:01:08;17.70;90.10
26964;DHT22;14521;48.148;-1.656;2022-11-20T03:04:31;17.70;90.10
26964;DHT22;14521;48.148;-1.656;2022-11-20T03:07:53;17.70;90.10
26964;DHT22;14521;48.148;-1.656;2022-11-20T03:11:15;17.70;90.20
26964;DHT22;14521;48.148;-1.656;2022-11-20T03:14:37;17.70;90.20
26964;DHT22;14521;48.148;-1.656;2022-11-20T03:17:59;17.70;90.20
26964;DHT22;14521;48.148;-1.656;2022-11-20T03:21:22;17.70;90.30
26964;DHT22;14521;48.148;-1.656;2022-11-20T03:24:44;17.60;90.30
26964;DHT22;14521;48.148;-1.656;2022-11-20T03:28:06;17.60;90.20
26964;DHT22;14521;48.148;-1.656;2022-11-20T03:31:34;17.60;90.20
26964;DHT22;14521;48.148;-1.656;2022-11-20T03:34:56;17.60;90.20
26964;DHT22;14521;48.148;-1.656;2022-11-20T03:38:18;17.70;90.30
26964;DHT22;14521;48.148;-1.656;2022-11-20T03:41:41;17.70;90.30
26964;DHT22;14521;48.148;-1.656;2022-11-20T03:45:04;17.70;90.20
26964;DHT22;14521;48.148;-1.656;2022-11-20T03:48:27;17.70;90.20
26964;DHT22;14521;48.148;-1.656;2022-11-20T03:51:49;17.70;90.20
26964;DHT22;14521;48.148;-1.656;2022-11-20T03:55:12;17.70;90.30
26964;DHT22;14521;48.148;-1.656;2022-11-20T03:58:35;17.70;90.40
26964;DHT22;14521;48.148;-1.656;2022-11-20T04:01:59;17.70;90.40
26964;DHT22;14521;48.148;-1.656;2022-11-20T04:05:21;17.70;90.50
26964;DHT22;14521;48.148;-1.656;2022-11-20T04:08:44;17.60;90.50
26964;DHT22;14521;48.148;-1.656;2022-11-20T04:12:13;17.70;90.60
26964;DHT22;14521;48.148;-1.656;2022-11-20T04:15:35;17.60;90.60
26964;DHT22;14521;48.148;-1.656;2022-11-20T04:19:01;17.70;90.60
26964;DHT22;14521;48.148;-1.656;2022-11-20T04:22:24;17.70;90.70
26964;DHT22;14521;48.148;-1.656;2022-11-20T04:25:46;17.70;90.70
26964;DHT22;14521;48.148;-1.656;2022-11-20T04:29:11;17.70;90.70
26964;DHT22;14521;48.148;-1.656;2022-11-20T04:32:33;17.70;90.70
26964;DHT22;14521;48.148;-1.656;2022-11-20T04:36:03;17.70;90.80
26964;DHT22;14521;48.148;-1.656;2022-11-20T04:39:26;17.70;90.80
26964;DHT22;14521;48.148;-1.656;2022-11-20T04:42:48;17.70;90.80
26964;DHT22;14521;48.148;-1.656;2022-11-20T04:46:10;17.70;90.90
26964;DHT22;14521;48.148;-1.656;2022-11-20T04:49:33;17.70;90.90
26964;DHT22;14521;48.148;-1.656;2022-11-20T04:52:56;17.80;90.90
26964;DHT22;14521;48.148;-1.656;2022-11-20T04:56:18;17.80;90.90
26964;DHT22;14521;48.148;-1.656;2022-11-20T04:59:40;17.80;90.90
26964;DHT22;14521;48.148;-1.656;2022-11-20T05:03:03;17.80;90.90
26964;DHT22;14521;48.148;-1.656;2022-11-20T05:06:25;17.80;90.90
26964;DHT22;14521;48.148;-1.656;2022-11-20T05:09:47;17.80;91.10
26964;DHT22;14521;48.148;-1.656;2022-11-20T05:13:09;17.90;91.30
26964;DHT22;14521;48.148;-1.656;2022-11-20T05:16:34;17.90;91.40
26964;DHT22;14521;48.148;-1.656;2022-11-20T05:19:57;17.90;91.40
26964;DHT22;14521;48.148;-1.656;2022-11-20T05:23:19;18.00;91.30
26964;DHT22;14521;48.148;-1.656;2022-11-20T05:26:43;18.10;91.30
26964;DHT22;14521;48.148;-1.656;2022-11-20T05:30:06;18.10;91.20
26964;DHT22;14521;48.148;-1.656;2022-11-20T05:33:29;18.10;91.00
26964;DHT22;14521;48.148;-1.656;2022-11-20T05:36:51;18.20;91.00
26964;DHT22;14521;48.148;-1.656;2022-11-20T05:40:13;18.30;90.90
26964;DHT22;14521;48.148;-1.656;2022-11-20T05:43:36;18.30;90.90
26964;DHT22;14521;48.148;-1.656;2022-11-20T05:46:59;18.30;90.80
26964;DHT22;14521;48.148;-1.656;2022-11-20T05:50:21;18.30;90.80
26964;DHT22;14521;48.148;-1.656;2022-11-20T05:53:43;18.40;90.80
26964;DHT22;14521;48.148;-1.656;2022-11-20T05:57:09;18.40;90.80
26964;DHT22;14521;48.148;-1.656;2022-11-20T06:00:32;18.40;90.80
26964;DHT22;14521;48.148;-1.656;2022-11-20T06:03:54;18.50;90.80
26964;DHT22;14521;48.148;-1.656;2022-11-20T06:07:16;18.50;90.80
26964;DHT22;14521;48.148;-1.656;2022-11-20T06:10:38;18.50;90.90
26964;DHT22;14521;48.148;-1.656;2022-11-20T06:14:00;18.50;90.80
26964;DHT22;14521;48.148;-1.656;2022-11-20T06:17:23;18.50;90.80
26964;DHT22;14521;48.148;-1.656;2022-11-20T06:20:46;18.50;90.80
26964;DHT22;14521;48.148;-1.656;2022-11-20T06:24:11;18.60;91.10
26964;DHT22;14521;48.148;-1.656;2022-11-20T06:27:33;18.50;91.10
26964;DHT22;14521;48.148;-1.656;2022-11-20T06:30:56;18.60;91.10
26964;DHT22;14521;48.148;-1.656;2022-11-20T06:34:18;18.50;91.20
26964;DHT22;14521;48.148;-1.656;2022-11-20T06:37:40;18.50;91.20
26964;DHT22;14521;48.148;-1.656;2022-11-20T06:41:04;18.50;91.30
26964;DHT22;14521;48.148;-1.656;2022-11-20T06:44:26;18.50;91.30
26964;DHT22;14521;48.148;-1.656;2022-11-20T06:47:48;18.60;91.40
26964;DHT22;14521;48.148;-1.656;2022-11-20T06:51:11;18.50;91.40
26964;DHT22;14521;48.148;-1.656;2022-11-20T06:54:33;18.60;91.90
26964;DHT22;14521;48.148;-1.656;2022-11-20T06:57:55;18.50;91.50
26964;DHT22;14521;48.148;-1.656;2022-11-20T07:01:17;18.50;91.60
26964;DHT22;14521;48.148;-1.656;2022-11-20T07:04:40;18.50;91.60
26964;DHT22;14521;48.148;-1.656;2022-11-20T07:08:03;18.60;91.60
26964;DHT22;14521;48.148;-1.656;2022-11-20T07:11:25;18.50;91.60
26964;DHT22;14521;48.148;-1.656;2022-11-20T07:14:47;18.50;91.40
26964;DHT22;14521;48.148;-1.656;2022-11-20T07:18:09;18.50;91.50
26964;DHT22;14521;48.148;-1.656;2022-11-20T07:21:32;18.50;88.80
26964;DHT22;14521;48.148;-1.656;2022-11-20T07:24:54;18.40;90.10
26964;DHT22;14521;48.148;-1.656;2022-11-20T07:28:16;18.40;90.80
26964;DHT22;14521;48.148;-1.656;2022-11-20T07:31:39;18.50;91.30
26964;DHT22;14521;48.148;-1.656;2022-11-20T07:35:01;18.80;91.00
26964;DHT22;14521;48.148;-1.656;2022-11-20T07:38:23;18.90;91.00
26964;DHT22;14521;48.148;-1.656;2022-11-20T07:41:45;18.90;92.20
26964;DHT22;14521;48.148;-1.656;2022-11-20T07:45:08;18.90;91.80
26964;DHT22;14521;48.148;-1.656;2022-11-20T07:48:30;18.90;91.70
26964;DHT22;14521;48.148;-1.656;2022-11-20T07:51:53;18.90;92.10
26964;DHT22;14521;48.148;-1.656;2022-11-20T07:55:15;18.90;91.30
26964;DHT22;14521;48.148;-1.656;2022-11-20T07:58:38;19.00;91.20
26964;DHT22;14521;48.148;-1.656;2022-11-20T08:02:00;18.90;92.10
26964;DHT22;14521;48.148;-1.656;2022-11-20T08:05:22;18.90;92.00
26964;DHT22;14521;48.148;-1.656;2022-11-20T08:08:44;19.00;91.40
26964;DHT22;14521;48.148;-1.656;2022-11-20T08:12:06;19.00;90.90
26964;DHT22;14521;48.148;-1.656;2022-11-20T08:15:49;19.00;91.20
26964;DHT22;14521;48.148;-1.656;2022-11-20T08:19:17;18.60;87.50
26964;DHT22;14521;48.148;-1.656;2022-11-20T08:22:40;18.20;88.30
26964;DHT22;14521;48.148;-1.656;2022-11-20T08:26:02;18.10;89.20
26964;DHT22;14521;48.148;-1.656;2022-11-20T08:29:26;18.20;91.60
26964;DHT22;14521;48.148;-1.656;2022-11-20T08:32:49;18.40;91.20
26964;DHT22;14521;48.148;-1.656;2022-11-20T08:36:12;18.60;90.60
26964;DHT22;14521;48.148;-1.656;2022-11-20T08:39:34;18.80;90.90
26964;DHT22;14521;48.148;-1.656;2022-11-20T08:42:59;18.90;90.60
26964;DHT22;14521;48.148;-1.656;2022-11-20T08:46:21;18.90;90.30
26964;DHT22;14521;48.148;-1.656;2022-11-20T08:49:44;18.90;90.50
26964;DHT22;14521;48.148;-1.656;2022-11-20T08:53:06;18.90;90.40
26964;DHT22;14521;48.148;-1.656;2022-11-20T08:56:28;18.90;90.80
26964;DHT22;14521;48.148;-1.656;2022-11-20T08:59:50;18.90;90.70
26964;DHT22;14521;48.148;-1.656;2022-11-20T09:03:28;18.90;90.60
26964;DHT22;14521;48.148;-1.656;2022-11-20T09:06:54;18.90;90.70
26964;DHT22;14521;48.148;-1.656;2022-11-20T09:10:16;19.00;90.80
26964;DHT22;14521;48.148;-1.656;2022-11-20T09:13:45;19.00;90.90
26964;DHT22;14521;48.148;-1.656;2022-11-20T09:17:10;19.00;91.00
26964;DHT22;14521;48.148;-1.656;2022-11-20T09:20:35;19.00;90.90
26964;DHT22;14521;48.148;-1.656;2022-11-20T09:23:57;19.00;90.80
26964;DHT22;14521;48.148;-1.656;2022-11-20T09:27:19;19.00;91.10
26964;DHT22;14521;48.148;-1.656;2022-11-20T09:30:45;18.90;90.80
26964;DHT22;14521;48.148;-1.656;2022-11-20T09:34:07;18.90;91.20
26964;DHT22;14521;48.148;-1.656;2022-11-20T09:37:29;18.90;91.40
26964;DHT22;14521;48.148;-1.656;2022-11-20T09:40:58;18.90;90.80
26964;DHT22;14521;48.148;-1.656;2022-11-20T09:44:27;18.90;91.20
26964;DHT22;14521;48.148;-1.656;2022-11-20T09:51:45;18.90;92.00
26964;DHT22;14521;48.148;-1.656;2022-11-20T09:55:12;18.90;91.70
26964;DHT22;14521;48.148;-1.656;2022-11-20T09:58:42;18.90;91.80
26964;DHT22;14521;48.148;-1.656;2022-11-20T10:05:54;18.90;91.60
26964;DHT22;14521;48.148;-1.656;2022-11-20T10:09:29;18.80;91.70
26964;DHT22;14521;48.148;-1.656;2022-11-20T10:23:56;18.80;91.70
26964;DHT22;14521;48.148;-1.656;2022-11-20T10:27:46;18.30;92.00
26964;DHT22;14521;48.148;-1.656;2022-11-20T10:31:13;18.00;92.60
26964;DHT22;14521;48.148;-1.656;2022-11-20T10:39:20;17.80;93.20
26964;DHT22;14521;48.148;-1.656;2022-11-20T10:42:31;17.80;92.90
26964;DHT22;14521;48.148;-1.656;2022-11-20T10:49:19;18.20;93.10
26964;DHT22;14521;48.148;-1.656;2022-11-20T10:56:25;18.60;92.50
26964;DHT22;14521;48.148;-1.656;2022-11-20T11:00:02;18.70;92.50
26964;DHT22;14521;48.148;-1.656;2022-11-20T11:03:29;18.80;92.20
26964;DHT22;14521;48.148;-1.656;2022-11-20T11:06:56;18.90;92.30
26964;DHT22;14521;48.148;-1.656;2022-11-20T11:14:12;19.30;91.40
26964;DHT22;14521;48.148;-1.656;2022-11-20T11:17:35;19.40;91.20
26964;DHT22;14521;48.148;-1.656;2022-11-20T11:21:01;19.50;91.00
26964;DHT22;14521;48.148;-1.656;2022-11-20T11:24:27;19.50;91.10
26964;DHT22;14521;48.148;-1.656;2022-11-20T11:28:20;19.50;91.00
26964;DHT22;14521;48.148;-1.656;2022-11-20T11:31:43;19.50;91.20
26964;DHT22;14521;48.148;-1.656;2022-11-20T11:35:07;19.40;92.10
26964;DHT22;14521;48.148;-1.656;2022-11-20T11:38:42;19.10;91.20
26964;DHT22;14521;48.148;-1.656;2022-11-20T11:42:05;19.00;91.80
26964;DHT22;14521;48.148;-1.656;2022-11-20T11:45:27;19.00;92.90
26964;DHT22;14521;48.148;-1.656;2022-11-20T11:52:26;19.10;92.90
26964;DHT22;14521;48.148;-1.656;2022-11-20T11:55:51;19.10;93.20
26964;DHT22;14521;48.148;-1.656;2022-11-20T11:59:30;19.30;94.00
26964;DHT22;14521;48.148;-1.656;2022-11-20T12:02:58;19.30;93.50
26964;DHT22;14521;48.148;-1.656;2022-11-20T12:06:22;19.30;93.50
26964;DHT22;14521;48.148;-1.656;2022-11-20T12:09:49;19.10;91.00
26964;DHT22;14521;48.148;-1.656;2022-11-20T12:13:44;19.20;94.20
26964;DHT22;14521;48.148;-1.656;2022-11-20T12:17:13;19.30;94.10
26964;DHT22;14521;48.148;-1.656;2022-11-20T12:20:48;19.40;94.60
26964;DHT22;14521;48.148;-1.656;2022-11-20T12:28:43;19.60;94.60
26964;DHT22;14521;48.148;-1.656;2022-11-20T12:35:50;19.50;94.80
26964;DHT22;14521;48.148;-1.656;2022-11-20T12:39:41;19.40;94.90
26964;DHT22;14521;48.148;-1.656;2022-11-20T12:43:22;19.40;94.80
26964;DHT22;14521;48.148;-1.656;2022-11-20T12:48:02;19.50;95.10
26964;DHT22;14521;48.148;-1.656;2022-11-20T13:06:18;19.30;95.70
26964;DHT22;14521;48.148;-1.656;2022-11-20T13:09:49;19.30;95.70
26964;DHT22;14521;48.148;-1.656;2022-11-20T13:13:35;19.30;95.50
26964;DHT22;14521;48.148;-1.656;2022-11-20T13:17:11;19.30;95.00
26964;DHT22;14521;48.148;-1.656;2022-11-20T13:20:41;19.30;95.00
26964;DHT22;14521;48.148;-1.656;2022-11-20T13:27:48;19.30;95.70
26964;DHT22;14521;48.148;-1.656;2022-11-20T13:31:29;19.40;96.90
26964;DHT22;14521;48.148;-1.656;2022-11-20T13:34:53;19.40;97.00
26964;DHT22;14521;48.148;-1.656;2022-11-20T13:38:16;19.40;97.30
26964;DHT22;14521;48.148;-1.656;2022-11-20T13:41:38;19.40;97.70
26964;DHT22;14521;48.148;-1.656;2022-11-20T13:45:08;19.40;97.50
26964;DHT22;14521;48.148;-1.656;2022-11-20T13:48:40;19.40;97.30
26964;DHT22;14521;48.148;-1.656;2022-11-20T14:03:47;19.30;96.00
26964;DHT22;14521;48.148;-1.656;2022-11-20T14:07:37;19.40;96.00
26964;DHT22;14521;48.148;-1.656;2022-11-20T14:11:26;19.40;95.80
26964;DHT22;14521;48.148;-1.656;2022-11-20T14:14:52;19.30;96.40
26964;DHT22;14521;48.148;-1.656;2022-11-20T14:18:20;19.30;96.90
26964;DHT22;14521;48.148;-1.656;2022-11-20T14:21:43;19.30;96.70
26964;DHT22;14521;48.148;-1.656;2022-11-20T14:28:36;19.20;97.20
26964;DHT22;14521;48.148;-1.656;2022-11-20T14:31:58;19.20;97.20
26964;DHT22;14521;48.148;-1.656;2022-11-20T14:38:48;19.20;97.10
26964;DHT22;14521;48.148;-1.656;2022-11-20T14:42:19;19.20;97.40
26964;DHT22;14521;48.148;-1.656;2022-11-20T14:45:41;19.20;97.20
26964;DHT22;14521;48.148;-1.656;2022-11-20T14:49:04;19.20;97.40
26964;DHT22;14521;48.148;-1.656;2022-11-20T14:52:28;19.10;96.50
26964;DHT22;14521;48.148;-1.656;2022-11-20T14:55:58;19.10;97.00
26964;DHT22;14521;48.148;-1.656;2022-11-20T14:59:25;19.10;96.90
26964;DHT22;14521;48.148;-1.656;2022-11-20T15:02:50;19.20;97.30
26964;DHT22;14521;48.148;-1.656;2022-11-20T15:06:12;19.20;96.20
26964;DHT22;14521;48.148;-1.656;2022-11-20T15:09:34;19.10;95.90
26964;DHT22;14521;48.148;-1.656;2022-11-20T15:13:06;19.10;96.60
26964;DHT22;14521;48.148;-1.656;2022-11-20T15:16:34;19.20;96.50
26964;DHT22;14521;48.148;-1.656;2022-11-20T15:19:56;19.20;96.90
26964;DHT22;14521;48.148;-1.656;2022-11-20T15:23:19;19.20;96.30
26964;DHT22;14521;48.148;-1.656;2022-11-20T15:26:41;19.20;96.30
26964;DHT22;14521;48.148;-1.656;2022-11-20T15:30:15;19.10;97.60
26964;DHT22;14521;48.148;-1.656;2022-11-20T15:33:38;19.10;97.30
26964;DHT22;14521;48.148;-1.656;2022-11-20T15:37:00;19.10;97.30
26964;DHT22;14521;48.148;-1.656;2022-11-20T15:40:23;19.10;97.30
26964;DHT22;14521;48.148;-1.656;2022-11-20T15:43:45;19.10;97.20
26964;DHT22;14521;48.148;-1.656;2022-11-20T15:47:08;19.10;97.10
26964;DHT22;14521;48.148;-1.656;2022-11-20T15:50:38;19.00;96.30
26964;DHT22;14521;48.148;-1.656;2022-11-20T15:54:20;19.00;96.70
26964;DHT22;14521;48.148;-1.656;2022-11-20T15:57:44;18.90;95.80
26964;DHT22;14521;48.148;-1.656;2022-11-20T16:01:11;19.00;96.10
26964;DHT22;14521;48.148;-1.656;2022-11-20T16:04:34;19.00;97.30
26964;DHT22;14521;48.148;-1.656;2022-11-20T16:07:56;19.00;97.50
26964;DHT22;14521;48.148;-1.656;2022-11-20T16:11:18;19.00;97.60
26964;DHT22;14521;48.148;-1.656;2022-11-20T16:14:40;19.00;97.70
26964;DHT22;14521;48.148;-1.656;2022-11-20T16:18:01;19.00;97.80
26964;DHT22;14521;48.148;-1.656;2022-11-20T16:21:03;19.00;97.50
26964;DHT22;14521;48.148;-1.656;2022-11-20T16:24:06;19.00;97.10
26964;DHT22;14521;48.148;-1.656;2022-11-20T16:27:09;19.00;97.60
26964;DHT22;14521;48.148;-1.656;2022-11-20T16:30:12;19.00;98.10
26964;DHT22;14521;48.148;-1.656;2022-11-20T16:33:16;19.00;97.60
26964;DHT22;14521;48.148;-1.656;2022-11-20T16:36:20;19.00;97.60
26964;DHT22;14521;48.148;-1.656;2022-11-20T16:39:24;18.90;97.60
26964;DHT22;14521;48.148;-1.656;2022-11-20T16:42:26;18.90;97.50
26964;DHT22;14521;48.148;-1.656;2022-11-20T16:45:28;18.90;97.60
26964;DHT22;14521;48.148;-1.656;2022-11-20T16:48:34;18.90;97.60
26964;DHT22;14521;48.148;-1.656;2022-11-20T16:51:36;18.90;96.40
26964;DHT22;14521;48.148;-1.656;2022-11-20T16:54:39;18.90;97.10
26964;DHT22;14521;48.148;-1.656;2022-11-20T16:57:41;18.90;97.10
26964;DHT22;14521;48.148;-1.656;2022-11-20T17:01:09;18.90;97.20
26964;DHT22;14521;48.148;-1.656;2022-11-20T17:04:32;18.90;97.30
26964;DHT22;14521;48.148;-1.656;2022-11-20T17:07:54;18.90;97.10
26964;DHT22;14521;48.148;-1.656;2022-11-20T17:11:18;18.90;97.10
26964;DHT22;14521;48.148;-1.656;2022-11-20T17:14:40;18.80;97.20
26964;DHT22;14521;48.148;-1.656;2022-11-20T17:18:03;18.80;97.00
26964;DHT22;14521;48.148;-1.656;2022-11-20T17:21:25;18.80;97.10
26964;DHT22;14521;48.148;-1.656;2022-11-20T17:24:47;18.90;97.10
26964;DHT22;14521;48.148;-1.656;2022-11-20T17:28:10;18.90;96.20
26964;DHT22;14521;48.148;-1.656;2022-11-20T17:31:33;18.80;96.60
26964;DHT22;14521;48.148;-1.656;2022-11-20T17:34:56;18.90;96.50
26964;DHT22;14521;48.148;-1.656;2022-11-20T17:38:19;18.90;96.60
26964;DHT22;14521;48.148;-1.656;2022-11-20T17:41:42;18.90;94.10
26964;DHT22;14521;48.148;-1.656;2022-11-20T17:45:05;18.90;94.00
26964;DHT22;14521;48.148;-1.656;2022-11-20T17:48:29;18.80;93.60
26964;DHT22;14521;48.148;-1.656;2022-11-20T17:51:51;18.80;94.00
26964;DHT22;14521;48.148;-1.656;2022-11-20T17:55:13;18.70;94.30
26964;DHT22;14521;48.148;-1.656;2022-11-20T17:58:36;18.70;94.40
26964;DHT22;14521;48.148;-1.656;2022-11-20T18:01:59;18.80;94.80
26964;DHT22;14521;48.148;-1.656;2022-11-20T18:05:25;18.90;94.70
26964;DHT22;14521;48.148;-1.656;2022-11-20T18:08:48;18.90;94.00
26964;DHT22;14521;48.148;-1.656;2022-11-20T18:12:11;18.90;94.00
26964;DHT22;14521;48.148;-1.656;2022-11-20T18:15:33;19.00;94.90
26964;DHT22;14521;48.148;-1.656;2022-11-20T18:18:57;18.90;94.10
26964;DHT22;14521;48.148;-1.656;2022-11-20T18:22:19;18.90;94.00
26964;DHT22;14521;48.148;-1.656;2022-11-20T18:25:42;18.90;94.30
26964;DHT22;14521;48.148;-1.656;2022-11-20T18:29:05;18.90;95.20
26964;DHT22;14521;48.148;-1.656;2022-11-20T18:32:28;18.90;94.80
26964;DHT22;14521;48.148;-1.656;2022-11-20T18:35:50;19.00;95.10
26964;DHT22;14521;48.148;-1.656;2022-11-20T18:39:13;19.00;94.70
26964;DHT22;14521;48.148;-1.656;2022-11-20T18:42:36;19.00;94.70
26964;DHT22;14521;48.148;-1.656;2022-11-20T18:46:17;19.00;95.00
26964;DHT22;14521;48.148;-1.656;2022-11-20T18:49:41;19.10;95.70
26964;DHT22;14521;48.148;-1.656;2022-11-20T18:53:03;19.10;95.10
26964;DHT22;14521;48.148;-1.656;2022-11-20T18:56:25;19.10;95.60
26964;DHT22;14521;48.148;-1.656;2022-11-20T18:59:48;19.10;95.40
26964;DHT22;14521;48.148;-1.656;2022-11-20T19:03:10;19.10;95.40
26964;DHT22;14521;48.148;-1.656;2022-11-20T19:06:34;19.10;96.60
26964;DHT22;14521;48.148;-1.656;2022-11-20T19:09:56;19.10;95.60
26964;DHT22;14521;48.148;-1.656;2022-11-20T19:13:24;19.10;96.70
26964;DHT22;14521;48.148;-1.656;2022-11-20T19:16:47;19.10;96.70
26964;DHT22;14521;48.148;-1.656;2022-11-20T19:20:09;19.10;96.80
26964;DHT22;14521;48.148;-1.656;2022-11-20T19:23:31;19.10;95.30
26964;DHT22;14521;48.148;-1.656;2022-11-20T19:26:54;19.10;95.20
26964;DHT22;14521;48.148;-1.656;2022-11-20T19:30:17;19.10;96.20
26964;DHT22;14521;48.148;-1.656;2022-11-20T19:33:40;19.10;96.30
26964;DHT22;14521;48.148;-1.656;2022-11-20T19:37:03;19.10;96.10
26964;DHT22;14521;48.148;-1.656;2022-11-20T19:40:26;19.10;96.00
26964;DHT22;14521;48.148;-1.656;2022-11-20T19:43:48;19.10;96.10
26964;DHT22;14521;48.148;-1.656;2022-11-20T19:47:10;19.10;96.20
26964;DHT22;14521;48.148;-1.656;2022-11-20T19:50:36;19.00;96.50
26964;DHT22;14521;48.148;-1.656;2022-11-20T19:53:58;19.00;96.40
26964;DHT22;14521;48.148;-1.656;2022-11-20T19:57:21;19.00;96.30
26964;DHT22;14521;48.148;-1.656;2022-11-20T20:00:43;19.00;96.40
26964;DHT22;14521;48.148;-1.656;2022-11-20T20:04:06;19.00;96.40
26964;DHT22;14521;48.148;-1.656;2022-11-20T20:07:28;19.00;96.30
26964;DHT22;14521;48.148;-1.656;2022-11-20T20:10:50;19.00;96.20
26964;DHT22;14521;48.148;-1.656;2022-11-20T20:14:20;19.00;96.20
26964;DHT22;14521;48.148;-1.656;2022-11-20T20:17:42;19.00;96.40
26964;DHT22;14521;48.148;-1.656;2022-11-20T20:21:06;19.00;96.30
26964;DHT22;14521;48.148;-1.656;2022-11-20T20:24:29;18.90;96.30
26964;DHT22;14521;48.148;-1.656;2022-11-20T20:27:51;19.00;96.20
26964;DHT22;14521;48.148;-1.656;2022-11-20T20:31:16;18.90;96.30
26964;DHT22;14521;48.148;-1.656;2022-11-20T20:34:39;18.90;96.20
26964;DHT22;14521;48.148;-1.656;2022-11-20T20:38:01;18.90;96.20
26964;DHT22;14521;48.148;-1.656;2022-11-20T20:41:23;18.90;96.10
26964;DHT22;14521;48.148;-1.656;2022-11-20T20:44:47;18.90;96.00
26964;DHT22;14521;48.148;-1.656;2022-11-20T20:48:27;18.90;95.90
26964;DHT22;14521;48.148;-1.656;2022-11-20T20:51:49;18.90;95.90
26964;DHT22;14521;48.148;-1.656;2022-11-20T20:55:12;18.90;95.80
26964;DHT22;14521;48.148;-1.656;2022-11-20T20:58:34;18.90;95.80
26964;DHT22;14521;48.148;-1.656;2022-11-20T21:01:57;19.00;94.90
26964;DHT22;14521;48.148;-1.656;2022-11-20T21:05:19;18.80;92.30
26964;DHT22;14521;48.148;-1.656;2022-11-20T21:08:41;18.70;93.20
26964;DHT22;14521;48.148;-1.656;2022-11-20T21:12:06;18.60;93.50
26964;DHT22;14521;48.148;-1.656;2022-11-20T21:15:28;18.60;91.80
26964;DHT22;14521;48.148;-1.656;2022-11-20T21:18:50;18.50;92.20
26964;DHT22;14521;48.148;-1.656;2022-11-20T21:22:13;18.50;93.10
26964;DHT22;14521;48.148;-1.656;2022-11-20T21:25:36;18.40;93.20
26964;DHT22;14521;48.148;-1.656;2022-11-20T21:28:59;18.50;94.20
26964;DHT22;14521;48.148;-1.656;2022-11-20T21:32:21;18.60;95.60
26964;DHT22;14521;48.148;-1.656;2022-11-20T21:35:43;18.70;94.90
26964;DHT22;14521;48.148;-1.656;2022-11-20T21:39:06;18.80;95.10
26964;DHT22;14521;48.148;-1.656;2022-11-20T21:42:28;18.80;94.80
26964;DHT22;14521;48.148;-1.656;2022-11-20T21:45:50;18.80;94.70
26964;DHT22;14521;48.148;-1.656;2022-11-20T21:49:14;18.80;94.70
26964;DHT22;14521;48.148;-1.656;2022-11-20T21:52:38;18.90;95.00
26964;DHT22;14521;48.148;-1.656;2022-11-20T21:56:01;18.80;94.90
26964;DHT22;14521;48.148;-1.656;2022-11-20T21:59:25;18.80;94.70
26964;DHT22;14521;48.148;-1.656;2022-11-20T22:02:47;18.80;94.80
26964;DHT22;14521;48.148;-1.656;2022-11-20T22:06:09;18.80;94.70
26964;DHT22;14521;48.148;-1.656;2022-11-20T22:09:31;18.80;94.70
26964;DHT22;14521;48.148;-1.656;2022-11-20T22:12:54;18.80;94.80
26964;DHT22;14521;48.148;-1.656;2022-11-20T22:16:37;18.80;94.70
26964;DHT22;14521;48.148;-1.656;2022-11-20T22:19:59;18.80;92.90
26964;DHT22;14521;48.148;-1.656;2022-11-20T22:23:21;18.70;93.40
26964;DHT22;14521;48.148;-1.656;2022-11-20T22:26:43;18.80;94.20
26964;DHT22;14521;48.148;-1.656;2022-11-20T22:30:06;18.80;94.20
26964;DHT22;14521;48.148;-1.656;2022-11-20T22:33:30;18.70;93.90